sensor_id;sensor_type;location;lat;lon;timestamp;temperature;humidity
15906;DHT22;8051;50.820;4.884;2023-02-03T00:01:03;9.00;99.90
15906;DHT22;8051;50.820;4.884;2023-02-03T00:03:31;9.00;99.90
15906;DHT22;8051;50.820;4.884;2023-02-03T00:05:59;9.00;99.90
15906;DHT22;8051;50.820;4.884;2023-02-03T00:08:27;9.00;99.90
15906;DHT22;8051;50.820;4.884;2023-02-03T00:10:57;8.90;99.90
15906;DHT22;8051;50.820;4.884;2023-02-03T00:13:24;8.90;99.90
15906;DHT22;8051;50.820;4.884;2023-02-03T00:15:52;8.90;99.90
15906;DHT22;8051;50.820;4.884;2023-02-03T00:18:19;8.80;99.90
15906;DHT22;8051;50.820;4.884;2023-02-03T00:20:47;8.70;99.90
15906;DHT22;8051;50.820;4.884;2023-02-03T00:23:14;8.70;99.90
15906;DHT22;8051;50.820;4.884;2023-02-03T00:25:42;8.60;99.90
15906;DHT22;8051;50.820;4.884;2023-02-03T00:28:11;8.60;99.90
15906;DHT22;8051;50.820;4.884;2023-02-03T00:30:38;8.60;99.90
15906;DHT22;8051;50.820;4.884;2023-02-03T00:33:06;8.60;99.90
15906;DHT22;8051;50.820;4.884;2023-02-03T00:35:36;8.70;99.90
15906;DHT22;8051;50.820;4.884;2023-02-03T00:38:03;8.70;99.90
15906;DHT22;8051;50.820;4.884;2023-02-03T00:40:31;8.70;99.90
15906;DHT22;8051;50.820;4.884;2023-02-03T00:42:58;8.80;99.90
15906;DHT22;8051;50.820;4.884;2023-02-03T00:45:27;8.80;99.90
15906;DHT22;8051;50.820;4.884;2023-02-03T00:47:54;8.80;99.90
15906;DHT22;8051;50.820;4.884;2023-02-03T00:50:22;8.90;99.90
15906;DHT22;8051;50.820;4.884;2023-02-03T00:52:49;8.90;99.90
15906;DHT22;8051;50.820;4.884;2023-02-03T00:55:17;8.90;99.90
15906;DHT22;8051;50.820;4.884;2023-02-03T00:57:44;8.80;99.90
15906;DHT22;8051;50.820;4.884;2023-02-03T01:00:12;8.90;99.90
15906;DHT22;8051;50.820;4.884;2023-02-03T01:02:41;8.80;99.90
15906;DHT22;8051;50.820;4.884;2023-02-03T01:05:08;8.90;99.90
15906;DHT22;8051;50.820;4.884;2023-02-03T01:07:36;8.90;99.90
15906;DHT22;8051;50.820;4.884;2023-02-03T01:10:04;8.90;99.90
15906;DHT22;8051;50.820;4.884;2023-02-03T01:12:32;8.90;99.90
15906;DHT22;8051;50.820;4.884;2023-02-03T01:15:00;8.90;99.90
15906;DHT22;8051;50.820;4.884;2023-02-03T01:17:27;8.90;99.90
15906;DHT22;8051;50.820;4.884;2023-02-03T01:19:56;8.90;99.90
15906;DHT22;8051;50.820;4.884;2023-02-03T01:22:23;8.90;99.90
15906;DHT22;8051;50.820;4.884;2023-02-03T01:24:51;8.90;99.90
15906;DHT22;8051;50.820;4.884;2023-02-03T01:27:18;8.90;99.90
15906;DHT22;8051;50.820;4.884;2023-02-03T01:29:46;8.90;99.90
15906;DHT22;8051;50.820;4.884;2023-02-03T01:32:13;8.90;99.90
15906;DHT22;8051;50.820;4.884;2023-02-03T01:34:41;9.00;99.90
15906;DHT22;8051;50.820;4.884;2023-02-03T01:37:10;9.00;99.90
15906;DHT22;8051;50.820;4.884;2023-02-03T01:39:39;9.00;99.90
15906;DHT22;8051;50.820;4.884;2023-02-03T01:42:08;9.00;99.90
15906;DHT22;8051;50.820;4.884;2023-02-03T01:44:41;9.00;99.90
15906;DHT22;8051;50.820;4.884;2023-02-03T01:47:20;9.00;99.90
15906;DHT22;8051;50.820;4.884;2023-02-03T01:49:53;9.00;99.90
15906;DHT22;8051;50.820;4.884;2023-02-03T01:52:23;9.00;99.90
15906;DHT22;8051;50.820;4.884;2023-02-03T01:54:51;9.10;99.90
15906;DHT22;8051;50.820;4.884;2023-02-03T01:57:23;9.10;99.90
15906;DHT22;8051;50.820;4.884;2023-02-03T01:59:54;9.10;99.90
15906;DHT22;8051;50.820;4.884;2023-02-03T02:02:24;9.10;99.90
15906;DHT22;8051;50.820;4.884;2023-02-03T02:04:55;9.20;99.90
15906;DHT22;8051;50.820;4.884;2023-02-03T02:07:26;9.20;99.90
15906;DHT22;8051;50.820;4.884;2023-02-03T02:09:54;9.20;99.90
15906;DHT22;8051;50.820;4.884;2023-02-03T02:12:23;9.20;99.90
15906;DHT22;8051;50.820;4.884;2023-02-03T02:14:50;9.20;99.90
15906;DHT22;8051;50.820;4.884;2023-02-03T02:20:32;9.20;99.90
15906;DHT22;8051;50.820;4.884;2023-02-03T02:23:21;9.20;99.90
15906;DHT22;8051;50.820;4.884;2023-02-03T02:32:02;9.20;99.90
15906;DHT22;8051;50.820;4.884;2023-02-03T02:34:42;9.10;99.90
15906;DHT22;8051;50.820;4.884;2023-02-03T02:37:19;9.10;99.90
15906;DHT22;8051;50.820;4.884;2023-02-03T02:39:54;9.10;99.90
15906;DHT22;8051;50.820;4.884;2023-02-03T02:42:28;9.10;99.90
15906;DHT22;8051;50.820;4.884;2023-02-03T02:45:05;9.10;99.90
15906;DHT22;8051;50.820;4.884;2023-02-03T02:47:35;9.10;99.90
15906;DHT22;8051;50.820;4.884;2023-02-03T02:50:07;9.10;99.90
15906;DHT22;8051;50.820;4.884;2023-02-03T02:52:38;9.10;99.90
15906;DHT22;8051;50.820;4.884;2023-02-03T02:55:10;9.10;99.90
15906;DHT22;8051;50.820;4.884;2023-02-03T02:57:39;9.00;99.90
15906;DHT22;8051;50.820;4.884;2023-02-03T03:00:09;9.00;99.90
15906;DHT22;8051;50.820;4.884;2023-02-03T03:02:39;9.00;99.90
15906;DHT22;8051;50.820;4.884;2023-02-03T03:05:09;9.00;99.90
15906;DHT22;8051;50.820;4.884;2023-02-03T03:07:42;9.00;99.90
15906;DHT22;8051;50.820;4.884;2023-02-03T03:10:12;9.00;99.90
15906;DHT22;8051;50.820;4.884;2023-02-03T03:12:48;9.00;99.90
15906;DHT22;8051;50.820;4.884;2023-02-03T03:15:19;9.00;99.90
15906;DHT22;8051;50.820;4.884;2023-02-03T03:17:53;9.00;99.90
15906;DHT22;8051;50.820;4.884;2023-02-03T03:20:24;9.00;99.90
15906;DHT22;8051;50.820;4.884;2023-02-03T03:22:56;9.00;99.90
15906;DHT22;8051;50.820;4.884;2023-02-03T03:25:30;9.00;99.90
15906;DHT22;8051;50.820;4.884;2023-02-03T03:28:03;9.00;99.90
15906;DHT22;8051;50.820;4.884;2023-02-03T03:30:36;9.00;99.90
15906;DHT22;8051;50.820;4.884;2023-02-03T03:33:05;9.00;99.90
15906;DHT22;8051;50.820;4.884;2023-02-03T03:35:38;9.00;99.90
15906;DHT22;8051;50.820;4.884;2023-02-03T03:38:12;9.00;99.90
15906;DHT22;8051;50.820;4.884;2023-02-03T03:40:43;9.00;99.90
15906;DHT22;8051;50.820;4.884;2023-02-03T03:43:15;9.00;99.90
15906;DHT22;8051;50.820;4.884;2023-02-03T03:45:47;9.00;99.90
15906;DHT22;8051;50.820;4.884;2023-02-03T03:48:23;9.00;99.90
15906;DHT22;8051;50.820;4.884;2023-02-03T03:50:55;9.00;99.90
15906;DHT22;8051;50.820;4.884;2023-02-03T03:53:26;9.00;99.90
15906;DHT22;8051;50.820;4.884;2023-02-03T03:55:56;9.00;99.90
15906;DHT22;8051;50.820;4.884;2023-02-03T03:58:28;9.00;99.90
15906;DHT22;8051;50.820;4.884;2023-02-03T04:01:00;9.00;99.90
15906;DHT22;8051;50.820;4.884;2023-02-03T04:03:33;9.00;99.90
15906;DHT22;8051;50.820;4.884;2023-02-03T04:06:02;9.00;99.90
15906;DHT22;8051;50.820;4.884;2023-02-03T04:08:29;9.00;99.90
15906;DHT22;8051;50.820;4.884;2023-02-03T04:10:56;9.00;99.90
15906;DHT22;8051;50.820;4.884;2023-02-03T04:13:24;9.00;99.90
15906;DHT22;8051;50.820;4.884;2023-02-03T04:15:51;9.00;99.90
15906;DHT22;8051;50.820;4.884;2023-02-03T04:18:19;9.00;99.90
15906;DHT22;8051;50.820;4.884;2023-02-03T04:20:47;9.00;99.90
15906;DHT22;8051;50.820;4.884;2023-02-03T04:23:15;9.00;99.90
15906;DHT22;8051;50.820;4.884;2023-02-03T04:25:42;9.00;99.90
15906;DHT22;8051;50.820;4.884;2023-02-03T04:28:10;9.00;99.90
15906;DHT22;8051;50.820;4.884;2023-02-03T04:30:37;9.00;99.90
15906;DHT22;8051;50.820;4.884;2023-02-03T04:33:05;9.00;99.90
15906;DHT22;8051;50.820;4.884;2023-02-03T04:35:32;9.00;99.90
15906;DHT22;8051;50.820;4.884;2023-02-03T04:38:01;9.00;99.90
15906;DHT22;8051;50.820;4.884;2023-02-03T04:40:28;9.00;99.90
15906;DHT22;8051;50.820;4.884;2023-02-03T04:42:56;8.90;99.90
15906;DHT22;8051;50.820;4.884;2023-02-03T04:45:23;9.00;99.90
15906;DHT22;8051;50.820;4.884;2023-02-03T04:47:51;8.90;99.90
15906;DHT22;8051;50.820;4.884;2023-02-03T04:50:19;9.00;99.90
15906;DHT22;8051;50.820;4.884;2023-02-03T04:52:46;9.00;99.90
15906;DHT22;8051;50.820;4.884;2023-02-03T04:55:15;8.90;99.90
15906;DHT22;8051;50.820;4.884;2023-02-03T04:57:43;9.00;99.90
15906;DHT22;8051;50.820;4.884;2023-02-03T05:00:12;9.00;99.90
15906;DHT22;8051;50.820;4.884;2023-02-03T05:02:39;9.00;99.90
15906;DHT22;8051;50.820;4.884;2023-02-03T05:05:10;9.00;99.90
15906;DHT22;8051;50.820;4.884;2023-02-03T05:07:37;9.00;99.90
15906;DHT22;8051;50.820;4.884;2023-02-03T05:10:05;9.00;99.90
15906;DHT22;8051;50.820;4.884;2023-02-03T05:12:34;9.00;99.90
15906;DHT22;8051;50.820;4.884;2023-02-03T05:15:02;9.00;99.90
15906;DHT22;8051;50.820;4.884;2023-02-03T05:17:30;9.00;99.90
15906;DHT22;8051;50.820;4.884;2023-02-03T05:19:57;9.00;99.90
15906;DHT22;8051;50.820;4.884;2023-02-03T05:22:25;9.00;99.90
15906;DHT22;8051;50.820;4.884;2023-02-03T05:24:52;9.00;99.90
15906;DHT22;8051;50.820;4.884;2023-02-03T05:27:20;9.00;99.90
15906;DHT22;8051;50.820;4.884;2023-02-03T05:29:49;9.00;99.90
15906;DHT22;8051;50.820;4.884;2023-02-03T05:32:16;9.00;99.90
15906;DHT22;8051;50.820;4.884;2023-02-03T05:34:44;9.00;99.90
15906;DHT22;8051;50.820;4.884;2023-02-03T05:37:11;9.00;99.90
15906;DHT22;8051;50.820;4.884;2023-02-03T05:39:39;9.00;99.90
15906;DHT22;8051;50.820;4.884;2023-02-03T05:42:06;8.90;99.90
15906;DHT22;8051;50.820;4.884;2023-02-03T05:44:35;9.00;99.90
15906;DHT22;8051;50.820;4.884;2023-02-03T05:47:04;9.00;99.90
15906;DHT22;8051;50.820;4.884;2023-02-03T05:49:31;9.00;99.90
15906;DHT22;8051;50.820;4.884;2023-02-03T05:51:59;9.00;99.90
15906;DHT22;8051;50.820;4.884;2023-02-03T05:54:26;9.00;99.90
15906;DHT22;8051;50.820;4.884;2023-02-03T05:56:54;9.00;99.90
15906;DHT22;8051;50.820;4.884;2023-02-03T05:59:21;9.00;99.90
15906;DHT22;8051;50.820;4.884;2023-02-03T06:01:49;9.00;99.90
15906;DHT22;8051;50.820;4.884;2023-02-03T06:04:17;9.00;99.90
15906;DHT22;8051;50.820;4.884;2023-02-03T06:06:45;9.00;99.90
15906;DHT22;8051;50.820;4.884;2023-02-03T06:09:13;9.00;99.90
15906;DHT22;8051;50.820;4.884;2023-02-03T06:11:40;9.00;99.90
15906;DHT22;8051;50.820;4.884;2023-02-03T06:14:07;9.00;99.90
15906;DHT22;8051;50.820;4.884;2023-02-03T06:16:35;9.00;99.90
15906;DHT22;8051;50.820;4.884;2023-02-03T06:19:02;9.00;99.90
15906;DHT22;8051;50.820;4.884;2023-02-03T06:21:31;9.00;99.90
15906;DHT22;8051;50.820;4.884;2023-02-03T06:23:59;9.00;99.90
15906;DHT22;8051;50.820;4.884;2023-02-03T06:26:26;9.00;99.90
15906;DHT22;8051;50.820;4.884;2023-02-03T06:28:53;9.00;99.90
15906;DHT22;8051;50.820;4.884;2023-02-03T06:31:21;9.00;99.90
15906;DHT22;8051;50.820;4.884;2023-02-03T06:33:48;9.00;99.90
15906;DHT22;8051;50.820;4.884;2023-02-03T06:36:16;9.00;99.90
15906;DHT22;8051;50.820;4.884;2023-02-03T06:38:45;9.00;99.90
15906;DHT22;8051;50.820;4.884;2023-02-03T06:41:12;9.00;99.90
15906;DHT22;8051;50.820;4.884;2023-02-03T06:43:40;9.00;99.90
15906;DHT22;8051;50.820;4.884;2023-02-03T06:46:07;9.00;99.90
15906;DHT22;8051;50.820;4.884;2023-02-03T06:48:35;9.00;99.90
15906;DHT22;8051;50.820;4.884;2023-02-03T06:51:03;9.00;99.90
15906;DHT22;8051;50.820;4.884;2023-02-03T06:53:31;9.00;99.90
15906;DHT22;8051;50.820;4.884;2023-02-03T06:56:00;9.00;99.90
15906;DHT22;8051;50.820;4.884;2023-02-03T06:58:28;9.00;99.90
15906;DHT22;8051;50.820;4.884;2023-02-03T07:00:55;9.00;99.90
15906;DHT22;8051;50.820;4.884;2023-02-03T07:03:23;8.90;99.90
15906;DHT22;8051;50.820;4.884;2023-02-03T07:05:50;9.00;99.90
15906;DHT22;8051;50.820;4.884;2023-02-03T07:08:18;9.00;99.90
15906;DHT22;8051;50.820;4.884;2023-02-03T07:10:45;9.00;99.90
15906;DHT22;8051;50.820;4.884;2023-02-03T07:13:14;9.00;99.90
15906;DHT22;8051;50.820;4.884;2023-02-03T07:15:42;9.00;99.90
15906;DHT22;8051;50.820;4.884;2023-02-03T07:18:09;9.00;99.90
15906;DHT22;8051;50.820;4.884;2023-02-03T07:20:37;9.00;99.90
15906;DHT22;8051;50.820;4.884;2023-02-03T07:23:04;8.90;99.90
15906;DHT22;8051;50.820;4.884;2023-02-03T07:25:32;9.00;99.90
15906;DHT22;8051;50.820;4.884;2023-02-03T07:28:00;9.00;99.90
15906;DHT22;8051;50.820;4.884;2023-02-03T07:30:29;9.00;99.90
15906;DHT22;8051;50.820;4.884;2023-02-03T07:32:56;9.00;99.90
15906;DHT22;8051;50.820;4.884;2023-02-03T07:35:23;9.00;99.90
15906;DHT22;8051;50.820;4.884;2023-02-03T07:37:52;9.00;99.90
15906;DHT22;8051;50.820;4.884;2023-02-03T07:40:20;9.00;99.90
15906;DHT22;8051;50.820;4.884;2023-02-03T07:42:48;9.00;99.90
15906;DHT22;8051;50.820;4.884;2023-02-03T07:45:17;9.00;99.90
15906;DHT22;8051;50.820;4.884;2023-02-03T07:47:46;9.10;99.90
15906;DHT22;8051;50.820;4.884;2023-02-03T07:50:13;9.10;99.90
15906;DHT22;8051;50.820;4.884;2023-02-03T07:52:40;9.20;99.90
15906;DHT22;8051;50.820;4.884;2023-02-03T07:55:08;9.20;99.90
15906;DHT22;8051;50.820;4.884;2023-02-03T07:57:36;9.20;99.90
15906;DHT22;8051;50.820;4.884;2023-02-03T08:00:09;9.20;99.90
15906;DHT22;8051;50.820;4.884;2023-02-03T08:02:37;9.20;99.90
15906;DHT22;8051;50.820;4.884;2023-02-03T08:05:07;9.20;99.90
15906;DHT22;8051;50.820;4.884;2023-02-03T08:07:34;9.20;99.90
15906;DHT22;8051;50.820;4.884;2023-02-03T08:10:02;9.20;99.90
15906;DHT22;8051;50.820;4.884;2023-02-03T08:12:30;9.20;99.90
15906;DHT22;8051;50.820;4.884;2023-02-03T08:14:57;9.20;99.90
15906;DHT22;8051;50.820;4.884;2023-02-03T08:17:25;9.20;99.90
15906;DHT22;8051;50.820;4.884;2023-02-03T08:19:53;9.20;99.90
15906;DHT22;8051;50.820;4.884;2023-02-03T08:22:21;9.20;99.90
15906;DHT22;8051;50.820;4.884;2023-02-03T08:24:49;9.20;99.90
15906;DHT22;8051;50.820;4.884;2023-02-03T08:27:19;9.20;99.90
15906;DHT22;8051;50.820;4.884;2023-02-03T08:29:47;9.30;99.90
15906;DHT22;8051;50.820;4.884;2023-02-03T08:32:17;9.40;99.90
15906;DHT22;8051;50.820;4.884;2023-02-03T08:34:45;9.40;99.90
15906;DHT22;8051;50.820;4.884;2023-02-03T08:37:14;9.40;99.90
15906;DHT22;8051;50.820;4.884;2023-02-03T08:39:43;9.40;99.90
15906;DHT22;8051;50.820;4.884;2023-02-03T08:42:11;9.40;99.90
15906;DHT22;8051;50.820;4.884;2023-02-03T08:44:38;9.40;99.90
15906;DHT22;8051;50.820;4.884;2023-02-03T08:47:06;9.40;99.90
15906;DHT22;8051;50.820;4.884;2023-02-03T08:49:34;9.50;99.90
15906;DHT22;8051;50.820;4.884;2023-02-03T08:52:04;9.50;99.90
15906;DHT22;8051;50.820;4.884;2023-02-03T08:54:32;9.50;99.90
15906;DHT22;8051;50.820;4.884;2023-02-03T08:57:01;9.50;99.90
15906;DHT22;8051;50.820;4.884;2023-02-03T08:59:29;9.60;99.90
15906;DHT22;8051;50.820;4.884;2023-02-03T09:01:56;9.50;99.90
15906;DHT22;8051;50.820;4.884;2023-02-03T09:04:25;9.50;99.90
15906;DHT22;8051;50.820;4.884;2023-02-03T09:06:53;9.60;99.90
15906;DHT22;8051;50.820;4.884;2023-02-03T09:09:22;9.50;99.90
15906;DHT22;8051;50.820;4.884;2023-02-03T09:11:51;9.50;99.90
15906;DHT22;8051;50.820;4.884;2023-02-03T09:14:21;9.60;99.90
15906;DHT22;8051;50.820;4.884;2023-02-03T09:16:50;9.60;99.90
15906;DHT22;8051;50.820;4.884;2023-02-03T09:19:17;9.70;99.90
15906;DHT22;8051;50.820;4.884;2023-02-03T09:21:45;9.60;99.90
15906;DHT22;8051;50.820;4.884;2023-02-03T09:24:14;9.60;99.90
15906;DHT22;8051;50.820;4.884;2023-02-03T09:26:41;9.60;99.90
15906;DHT22;8051;50.820;4.884;2023-02-03T09:29:09;9.60;99.90
15906;DHT22;8051;50.820;4.884;2023-02-03T09:31:38;9.60;99.90
15906;DHT22;8051;50.820;4.884;2023-02-03T09:34:06;9.60;99.90
15906;DHT22;8051;50.820;4.884;2023-02-03T09:36:33;9.60;99.90
15906;DHT22;8051;50.820;4.884;2023-02-03T09:39:02;9.60;99.90
15906;DHT22;8051;50.820;4.884;2023-02-03T09:41:42;9.60;99.90
15906;DHT22;8051;50.820;4.884;2023-02-03T09:44:18;9.60;99.90
15906;DHT22;8051;50.820;4.884;2023-02-03T09:46:52;9.60;99.90
15906;DHT22;8051;50.820;4.884;2023-02-03T09:49:24;9.70;99.90
15906;DHT22;8051;50.820;4.884;2023-02-03T09:51:56;9.70;99.90
15906;DHT22;8051;50.820;4.884;2023-02-03T09:54:30;9.70;99.90
15906;DHT22;8051;50.820;4.884;2023-02-03T09:57:05;9.70;99.90
15906;DHT22;8051;50.820;4.884;2023-02-03T09:59:37;9.70;99.90
15906;DHT22;8051;50.820;4.884;2023-02-03T10:02:29;9.70;99.90
15906;DHT22;8051;50.820;4.884;2023-02-03T10:05:05;9.80;99.90
15906;DHT22;8051;50.820;4.884;2023-02-03T10:07:43;9.80;99.90
15906;DHT22;8051;50.820;4.884;2023-02-03T10:10:17;9.80;99.90
15906;DHT22;8051;50.820;4.884;2023-02-03T10:13:05;9.80;99.90
15906;DHT22;8051;50.820;4.884;2023-02-03T10:16:00;9.90;99.90
15906;DHT22;8051;50.820;4.884;2023-02-03T10:18:35;10.00;99.90
15906;DHT22;8051;50.820;4.884;2023-02-03T10:21:11;10.00;99.90
15906;DHT22;8051;50.820;4.884;2023-02-03T10:23:42;10.00;99.90
15906;DHT22;8051;50.820;4.884;2023-02-03T10:26:15;10.10;99.90
15906;DHT22;8051;50.820;4.884;2023-02-03T10:28:50;10.00;99.90
15906;DHT22;8051;50.820;4.884;2023-02-03T10:31:20;10.10;99.90
15906;DHT22;8051;50.820;4.884;2023-02-03T10:33:57;10.10;99.90
15906;DHT22;8051;50.820;4.884;2023-02-03T10:36:33;10.10;99.90
15906;DHT22;8051;50.820;4.884;2023-02-03T10:39:10;10.10;99.90
15906;DHT22;8051;50.820;4.884;2023-02-03T10:41:39;10.20;99.90
15906;DHT22;8051;50.820;4.884;2023-02-03T10:44:09;10.30;99.90
15906;DHT22;8051;50.820;4.884;2023-02-03T10:46:40;10.30;99.90
15906;DHT22;8051;50.820;4.884;2023-02-03T10:49:12;10.30;99.90
15906;DHT22;8051;50.820;4.884;2023-02-03T10:51:46;10.20;99.90
15906;DHT22;8051;50.820;4.884;2023-02-03T10:54:28;10.20;99.90
15906;DHT22;8051;50.820;4.884;2023-02-03T10:57:02;10.20;99.90
15906;DHT22;8051;50.820;4.884;2023-02-03T10:59:32;10.20;99.90
15906;DHT22;8051;50.820;4.884;2023-02-03T11:02:07;10.20;99.90
15906;DHT22;8051;50.820;4.884;2023-02-03T11:04:36;10.10;99.90
15906;DHT22;8051;50.820;4.884;2023-02-03T11:07:06;10.20;99.90
15906;DHT22;8051;50.820;4.884;2023-02-03T11:09:35;10.10;99.90
15906;DHT22;8051;50.820;4.884;2023-02-03T11:12:09;10.10;99.90
15906;DHT22;8051;50.820;4.884;2023-02-03T11:14:42;10.10;99.90
15906;DHT22;8051;50.820;4.884;2023-02-03T11:17:15;10.10;99.90
15906;DHT22;8051;50.820;4.884;2023-02-03T11:19:46;10.10;99.90
15906;DHT22;8051;50.820;4.884;2023-02-03T11:22:26;10.00;99.90
15906;DHT22;8051;50.820;4.884;2023-02-03T11:24:55;9.90;99.90
15906;DHT22;8051;50.820;4.884;2023-02-03T11:27:24;9.90;99.90
15906;DHT22;8051;50.820;4.884;2023-02-03T11:30:08;9.80;99.90
15906;DHT22;8051;50.820;4.884;2023-02-03T11:32:39;9.90;99.90
15906;DHT22;8051;50.820;4.884;2023-02-03T11:35:16;9.90;99.90
15906;DHT22;8051;50.820;4.884;2023-02-03T11:37:45;9.70;99.90
15906;DHT22;8051;50.820;4.884;2023-02-03T11:40:24;9.60;99.90
15906;DHT22;8051;50.820;4.884;2023-02-03T11:43:03;9.50;99.90
15906;DHT22;8051;50.820;4.884;2023-02-03T11:45:36;9.60;99.90
15906;DHT22;8051;50.820;4.884;2023-02-03T11:48:17;9.70;99.90
15906;DHT22;8051;50.820;4.884;2023-02-03T11:50:52;9.60;99.90
15906;DHT22;8051;50.820;4.884;2023-02-03T11:53:28;9.60;99.90
15906;DHT22;8051;50.820;4.884;2023-02-03T11:56:12;9.60;99.90
15906;DHT22;8051;50.820;4.884;2023-02-03T11:59:01;9.60;99.90
15906;DHT22;8051;50.820;4.884;2023-02-03T12:07:47;9.80;99.90
15906;DHT22;8051;50.820;4.884;2023-02-03T12:10:27;9.80;99.90
15906;DHT22;8051;50.820;4.884;2023-02-03T12:13:02;9.80;99.90
15906;DHT22;8051;50.820;4.884;2023-02-03T12:15:46;9.80;99.90
15906;DHT22;8051;50.820;4.884;2023-02-03T12:18:31;9.90;99.90
15906;DHT22;8051;50.820;4.884;2023-02-03T12:21:10;9.90;99.90
15906;DHT22;8051;50.820;4.884;2023-02-03T12:23:50;9.80;99.90
15906;DHT22;8051;50.820;4.884;2023-02-03T12:26:23;9.90;99.90
15906;DHT22;8051;50.820;4.884;2023-02-03T12:28:57;9.80;99.90
15906;DHT22;8051;50.820;4.884;2023-02-03T12:31:33;9.80;99.90
15906;DHT22;8051;50.820;4.884;2023-02-03T12:34:14;9.80;99.90
15906;DHT22;8051;50.820;4.884;2023-02-03T12:36:46;9.80;99.90
15906;DHT22;8051;50.820;4.884;2023-02-03T12:39:19;9.70;99.90
15906;DHT22;8051;50.820;4.884;2023-02-03T12:41:53;9.80;99.90
15906;DHT22;8051;50.820;4.884;2023-02-03T12:44:27;9.80;99.90
15906;DHT22;8051;50.820;4.884;2023-02-03T12:47:00;9.80;99.90
15906;DHT22;8051;50.820;4.884;2023-02-03T12:49:37;9.90;99.90
15906;DHT22;8051;50.820;4.884;2023-02-03T12:52:16;10.00;99.90
15906;DHT22;8051;50.820;4.884;2023-02-03T12:54:51;10.00;99.90
15906;DHT22;8051;50.820;4.884;2023-02-03T12:57:24;10.00;99.90
15906;DHT22;8051;50.820;4.884;2023-02-03T13:00:15;10.10;99.90
15906;DHT22;8051;50.820;4.884;2023-02-03T13:02:51;10.00;99.90
15906;DHT22;8051;50.820;4.884;2023-02-03T13:05:25;10.10;99.90
15906;DHT22;8051;50.820;4.884;2023-02-03T13:08:00;10.20;99.90
15906;DHT22;8051;50.820;4.884;2023-02-03T13:10:37;10.20;99.90
15906;DHT22;8051;50.820;4.884;2023-02-03T13:13:10;10.20;99.90
15906;DHT22;8051;50.820;4.884;2023-02-03T13:15:43;10.20;99.90
15906;DHT22;8051;50.820;4.884;2023-02-03T13:18:18;10.20;99.90
15906;DHT22;8051;50.820;4.884;2023-02-03T13:20:51;10.30;99.90
15906;DHT22;8051;50.820;4.884;2023-02-03T13:23:19;10.30;99.90
15906;DHT22;8051;50.820;4.884;2023-02-03T13:26:00;10.40;99.90
15906;DHT22;8051;50.820;4.884;2023-02-03T13:28:42;10.50;99.90
15906;DHT22;8051;50.820;4.884;2023-02-03T13:31:22;10.60;99.90
15906;DHT22;8051;50.820;4.884;2023-02-03T13:34:09;10.70;99.90
15906;DHT22;8051;50.820;4.884;2023-02-03T13:37:03;10.70;99.90
15906;DHT22;8051;50.820;4.884;2023-02-03T13:42:26;10.80;99.90
15906;DHT22;8051;50.820;4.884;2023-02-03T13:44:57;10.80;99.90
15906;DHT22;8051;50.820;4.884;2023-02-03T13:47:28;10.80;99.90
15906;DHT22;8051;50.820;4.884;2023-02-03T13:49:58;10.80;99.90
15906;DHT22;8051;50.820;4.884;2023-02-03T13:52:34;10.70;99.90
15906;DHT22;8051;50.820;4.884;2023-02-03T13:55:04;10.70;99.90
15906;DHT22;8051;50.820;4.884;2023-02-03T13:57:34;10.70;99.90
15906;DHT22;8051;50.820;4.884;2023-02-03T14:00:05;10.60;99.90
15906;DHT22;8051;50.820;4.884;2023-02-03T14:02:48;10.60;99.90
15906;DHT22;8051;50.820;4.884;2023-02-03T14:05:39;10.60;99.90
15906;DHT22;8051;50.820;4.884;2023-02-03T14:11:38;10.70;99.90
15906;DHT22;8051;50.820;4.884;2023-02-03T14:14:54;10.70;99.90
15906;DHT22;8051;50.820;4.884;2023-02-03T14:18:04;10.70;99.90
15906;DHT22;8051;50.820;4.884;2023-02-03T14:21:08;10.60;99.90
15906;DHT22;8051;50.820;4.884;2023-02-03T14:24:04;10.60;99.90
15906;DHT22;8051;50.820;4.884;2023-02-03T14:26:38;10.60;99.90
15906;DHT22;8051;50.820;4.884;2023-02-03T14:29:07;10.60;99.90
15906;DHT22;8051;50.820;4.884;2023-02-03T14:31:55;10.60;99.90
15906;DHT22;8051;50.820;4.884;2023-02-03T14:34:34;10.60;99.90
15906;DHT22;8051;50.820;4.884;2023-02-03T14:37:18;10.60;99.90
15906;DHT22;8051;50.820;4.884;2023-02-03T14:40:18;10.60;99.90
15906;DHT22;8051;50.820;4.884;2023-02-03T14:43:13;10.60;99.90
15906;DHT22;8051;50.820;4.884;2023-02-03T14:49:25;10.60;99.90
15906;DHT22;8051;50.820;4.884;2023-02-03T14:52:14;10.60;99.90
15906;DHT22;8051;50.820;4.884;2023-02-03T14:55:01;10.70;99.90
15906;DHT22;8051;50.820;4.884;2023-02-03T14:57:37;10.70;99.90
15906;DHT22;8051;50.820;4.884;2023-02-03T15:00:26;10.60;99.90
15906;DHT22;8051;50.820;4.884;2023-02-03T15:03:19;10.60;99.90
15906;DHT22;8051;50.820;4.884;2023-02-03T15:05:51;10.60;99.90
15906;DHT22;8051;50.820;4.884;2023-02-03T15:08:46;10.70;99.90
15906;DHT22;8051;50.820;4.884;2023-02-03T15:11:25;10.70;99.90
15906;DHT22;8051;50.820;4.884;2023-02-03T15:13:54;10.70;99.90
15906;DHT22;8051;50.820;4.884;2023-02-03T15:16:23;10.70;99.90
15906;DHT22;8051;50.820;4.884;2023-02-03T15:18:56;10.60;99.90
15906;DHT22;8051;50.820;4.884;2023-02-03T15:21:25;10.70;99.90
15906;DHT22;8051;50.820;4.884;2023-02-03T15:23:53;10.70;99.90
15906;DHT22;8051;50.820;4.884;2023-02-03T15:26:23;10.60;99.90
15906;DHT22;8051;50.820;4.884;2023-02-03T15:28:54;10.70;99.90
15906;DHT22;8051;50.820;4.884;2023-02-03T15:31:26;10.60;99.90
15906;DHT22;8051;50.820;4.884;2023-02-03T15:34:03;10.60;99.90
15906;DHT22;8051;50.820;4.884;2023-02-03T15:36:39;10.60;99.90
15906;DHT22;8051;50.820;4.884;2023-02-03T15:39:16;10.60;99.90
15906;DHT22;8051;50.820;4.884;2023-02-03T15:41:48;10.60;99.90
15906;DHT22;8051;50.820;4.884;2023-02-03T15:44:24;10.60;99.90
15906;DHT22;8051;50.820;4.884;2023-02-03T15:46:53;10.60;99.90
15906;DHT22;8051;50.820;4.884;2023-02-03T15:49:24;10.60;99.90
15906;DHT22;8051;50.820;4.884;2023-02-03T15:51:57;10.60;99.90
15906;DHT22;8051;50.820;4.884;2023-02-03T15:54:29;10.60;99.90
15906;DHT22;8051;50.820;4.884;2023-02-03T15:57:00;10.60;99.90
15906;DHT22;8051;50.820;4.884;2023-02-03T15:59:33;10.60;99.90
15906;DHT22;8051;50.820;4.884;2023-02-03T16:02:11;10.60;99.90
15906;DHT22;8051;50.820;4.884;2023-02-03T16:04:41;10.60;99.90
15906;DHT22;8051;50.820;4.884;2023-02-03T16:07:17;10.50;99.90
15906;DHT22;8051;50.820;4.884;2023-02-03T16:09:45;10.40;99.90
15906;DHT22;8051;50.820;4.884;2023-02-03T16:12:17;10.40;99.90
15906;DHT22;8051;50.820;4.884;2023-02-03T16:14:48;10.40;99.90
15906;DHT22;8051;50.820;4.884;2023-02-03T16:17:24;10.30;99.90
15906;DHT22;8051;50.820;4.884;2023-02-03T16:20:19;10.30;99.90
15906;DHT22;8051;50.820;4.884;2023-02-03T16:23:04;10.30;99.90
15906;DHT22;8051;50.820;4.884;2023-02-03T16:25:33;10.30;99.90
15906;DHT22;8051;50.820;4.884;2023-02-03T16:28:03;10.30;99.90
15906;DHT22;8051;50.820;4.884;2023-02-03T16:30:57;10.30;99.90
15906;DHT22;8051;50.820;4.884;2023-02-03T16:33:44;10.30;99.90
15906;DHT22;8051;50.820;4.884;2023-02-03T16:36:29;10.20;99.90
15906;DHT22;8051;50.820;4.884;2023-02-03T16:39:15;10.20;99.90
15906;DHT22;8051;50.820;4.884;2023-02-03T16:42:00;10.20;99.90
15906;DHT22;8051;50.820;4.884;2023-02-03T16:44:50;10.10;99.90
15906;DHT22;8051;50.820;4.884;2023-02-03T16:47:38;10.20;99.90
15906;DHT22;8051;50.820;4.884;2023-02-03T16:50:23;10.10;99.90
15906;DHT22;8051;50.820;4.884;2023-02-03T16:53:12;10.10;99.90
15906;DHT22;8051;50.820;4.884;2023-02-03T16:55:42;10.10;99.90